createdAt,value
2018-10-06T00:00:25.631Z,82.33
2018-10-06T00:02:53.805Z,83.15
2018-10-06T00:05:22.099Z,82.35
2018-10-06T00:07:50.273Z,82.67
2018-10-06T00:10:18.417Z,83.48
2018-10-06T00:12:46.744Z,82.30
2018-10-06T00:15:14.965Z,83.32
2018-10-06T00:17:43.279Z,83.31
2018-10-06T00:20:11.442Z,83.95
2018-10-06T00:22:39.667Z,83.41
2018-10-06T00:25:09.073Z,83.52
2018-10-06T00:27:37.576Z,83.91
2018-10-06T00:30:06.053Z,83.63
2018-10-06T00:32:34.484Z,83.50
2018-10-06T00:35:02.617Z,83.56
2018-10-06T00:37:30.838Z,83.97
2018-10-06T00:39:59.246Z,84.55
2018-10-06T00:42:27.428Z,85.19
2018-10-06T00:44:55.519Z,85.36
2018-10-06T00:47:23.719Z,86.20
2018-10-06T00:49:51.906Z,85.58
2018-10-06T00:52:20.052Z,85.83
2018-10-06T00:54:48.272Z,86.25
2018-10-06T00:57:16.395Z,85.58
2018-10-06T00:59:44.522Z,86.05
2018-10-06T01:02:12.875Z,85.49
2018-10-06T01:04:41.103Z,86.17
2018-10-06T01:07:09.361Z,86.41
2018-10-06T01:09:37.607Z,87.00
2018-10-06T01:12:05.805Z,86.54
2018-10-06T01:14:33.948Z,86.34
2018-10-06T01:17:02.316Z,86.55
2018-10-06T01:19:30.680Z,87.25
2018-10-06T01:21:58.870Z,87.12
2018-10-06T01:24:27.087Z,87.82
2018-10-06T01:26:55.192Z,87.76
2018-10-06T01:29:23.457Z,87.63
2018-10-06T01:31:51.926Z,86.27
2018-10-06T01:34:20.845Z,87.56
2018-10-06T01:36:49.225Z,87.57
2018-10-06T01:39:17.491Z,87.60
2018-10-06T01:41:45.620Z,88.28
2018-10-06T01:44:13.810Z,87.37
2018-10-06T01:46:42.117Z,88.07
2018-10-06T01:49:10.319Z,87.65
2018-10-06T01:51:38.447Z,87.30
2018-10-06T01:54:06.799Z,87.95
2018-10-06T01:56:35.056Z,88.59
2018-10-06T01:59:03.218Z,88.26
2018-10-06T02:01:31.443Z,87.68
2018-10-06T02:03:59.518Z,88.91
2018-10-06T02:06:27.696Z,88.26
2018-10-06T02:08:55.806Z,89.53
2018-10-06T02:11:23.928Z,89.21
2018-10-06T02:13:52.075Z,88.58
2018-10-06T02:16:20.299Z,89.56
2018-10-06T02:18:48.504Z,89.84
2018-10-06T02:21:16.892Z,90.40
2018-10-06T02:23:45.083Z,89.95
2018-10-06T02:26:13.241Z,89.90
2018-10-06T02:28:41.448Z,89.68
2018-10-06T02:31:09.662Z,89.61
2018-10-06T02:33:37.924Z,88.96
2018-10-06T02:36:06.125Z,89.48
2018-10-06T02:38:34.287Z,90.42
2018-10-06T02:41:02.599Z,90.18
2018-10-06T02:43:30.690Z,90.52
2018-10-06T02:45:58.994Z,91.22
2018-10-06T02:48:27.324Z,90.98
2018-10-06T02:50:55.590Z,90.81
2018-10-06T02:53:23.914Z,90.32
2018-10-06T02:55:52.026Z,91.09
2018-10-06T02:58:20.299Z,91.76
2018-10-06T03:00:48.426Z,91.05
2018-10-06T03:03:16.542Z,91.49
2018-10-06T03:05:44.778Z,91.06
2018-10-06T03:08:12.864Z,91.41
2018-10-06T03:10:41.838Z,91.13
2018-10-06T03:13:09.965Z,91.70
2018-10-06T03:15:38.166Z,91.52
2018-10-06T03:18:06.420Z,92.24
2018-10-06T03:20:34.567Z,92.44
2018-10-06T03:23:02.765Z,92.42
2018-10-06T03:25:31.005Z,91.53
2018-10-06T03:27:59.455Z,92.29
2018-10-06T03:30:27.597Z,94.44
2018-10-06T03:32:55.681Z,93.01
2018-10-06T03:35:23.869Z,93.13
2018-10-06T03:37:52.031Z,92.49
2018-10-06T03:40:20.160Z,92.58
2018-10-06T03:42:48.578Z,92.47
2018-10-06T03:45:16.973Z,93.68
2018-10-06T03:47:45.170Z,93.76
2018-10-06T03:50:13.452Z,92.60
2018-10-06T03:52:41.707Z,93.44
2018-10-06T03:55:09.865Z,92.93
2018-10-06T03:57:38.155Z,93.63
2018-10-06T04:00:06.380Z,93.71
2018-10-06T04:02:34.539Z,94.45
2018-10-06T04:05:02.892Z,94.12
2018-10-06T04:07:31.126Z,93.54
2018-10-06T04:09:59.340Z,93.83
2018-10-06T04:12:27.616Z,94.49
2018-10-06T04:14:55.713Z,93.94
2018-10-06T04:17:23.848Z,93.27
2018-10-06T04:19:52.112Z,94.53
2018-10-06T04:22:20.282Z,94.42
2018-10-06T04:24:48.464Z,93.45
2018-10-06T04:27:16.610Z,94.37
2018-10-06T04:29:44.744Z,93.41
2018-10-06T04:32:12.877Z,94.09
2018-10-06T04:34:41.057Z,94.11
2018-10-06T04:37:09.176Z,94.72
2018-10-06T04:39:37.447Z,94.55
2018-10-06T04:42:05.634Z,93.48
2018-10-06T04:44:33.886Z,93.90
2018-10-06T04:47:02.075Z,95.05
2018-10-06T04:49:30.190Z,94.42
2018-10-06T04:51:58.316Z,94.79
2018-10-06T04:54:26.757Z,94.37
2018-10-06T04:56:54.947Z,93.31
2018-10-06T04:59:23.159Z,93.99
2018-10-06T05:01:51.650Z,93.83
2018-10-06T05:04:19.834Z,94.03
2018-10-06T05:06:48.016Z,94.06
2018-10-06T05:09:16.158Z,94.16
2018-10-06T05:11:44.319Z,94.15
2018-10-06T05:14:12.498Z,94.47
2018-10-06T05:16:40.662Z,94.58
2018-10-06T05:19:08.816Z,93.86
2018-10-06T05:21:36.901Z,93.76
2018-10-06T05:24:05.100Z,91.74
2018-10-06T05:26:33.376Z,88.71
2018-10-06T05:29:01.559Z,85.84
2018-10-06T05:31:29.855Z,83.65
2018-10-06T05:33:58.699Z,81.64
2018-10-06T05:36:27.182Z,81.73
2018-10-06T05:38:56.483Z,80.71
2018-10-06T05:41:25.616Z,79.01
2018-10-06T05:43:54.155Z,80.18
2018-10-06T05:46:22.770Z,79.81
2018-10-06T05:48:51.156Z,79.74
2018-10-06T05:51:19.938Z,81.68
2018-10-06T05:53:49.469Z,80.40
2018-10-06T05:56:18.149Z,78.80
2018-10-06T05:58:47.762Z,79.83
2018-10-06T06:01:16.567Z,82.14
2018-10-06T06:03:45.377Z,82.12
2018-10-06T06:06:14.161Z,81.56
2018-10-06T06:08:43.674Z,81.03
2018-10-06T06:11:12.752Z,82.59
2018-10-06T06:13:41.572Z,82.57
2018-10-06T06:16:10.010Z,82.90
2018-10-06T06:18:38.422Z,82.06
2018-10-06T06:21:07.202Z,80.96
2018-10-06T06:23:36.556Z,81.88
2018-10-06T06:26:05.905Z,80.34
2018-10-06T06:28:34.299Z,80.23
2018-10-06T06:31:02.916Z,80.98
2018-10-06T06:33:31.579Z,79.70
2018-10-06T06:36:00.109Z,78.87
2018-10-06T06:38:28.391Z,78.14
2018-10-06T06:40:56.921Z,77.30
2018-10-06T06:43:25.359Z,77.18
2018-10-06T06:45:53.953Z,75.65
2018-10-06T06:48:22.310Z,75.71
2018-10-06T06:50:50.624Z,74.82
2018-10-06T06:53:19.054Z,73.87
2018-10-06T06:55:47.897Z,75.38
2018-10-06T06:58:16.461Z,72.85
2018-10-06T07:00:44.740Z,72.51
2018-10-06T07:03:13.221Z,73.22
2018-10-06T07:05:43.617Z,72.16
2018-10-06T07:08:12.040Z,71.15
2018-10-06T07:10:40.461Z,70.52
2018-10-06T07:13:08.765Z,70.46
2018-10-06T07:15:37.221Z,70.36
2018-10-06T07:18:05.722Z,68.87
2018-10-06T07:20:34.172Z,69.01
2018-10-06T07:23:02.891Z,68.90
2018-10-06T07:25:31.418Z,68.91
2018-10-06T07:28:00.257Z,66.42
2018-10-06T07:30:28.937Z,65.64
2018-10-06T07:32:57.461Z,64.72
2018-10-06T07:35:26.367Z,64.10
2018-10-06T07:37:54.649Z,64.68
2018-10-06T07:40:23.160Z,64.42
2018-10-06T07:42:51.813Z,63.41
2018-10-06T07:45:20.192Z,62.39
2018-10-06T07:47:48.736Z,60.91
2018-10-06T07:50:17.368Z,61.12
2018-10-06T07:52:45.711Z,61.20
2018-10-06T07:55:14.345Z,61.05
2018-10-06T07:57:43.461Z,61.06
2018-10-06T08:00:12.377Z,58.84
2018-10-06T08:02:42.158Z,59.07
2018-10-06T08:05:10.981Z,58.12
2018-10-06T08:07:40.267Z,58.01
2018-10-06T08:10:08.926Z,58.15
2018-10-06T08:12:37.944Z,57.41
2018-10-06T08:15:06.371Z,56.86
2018-10-06T08:17:35.737Z,56.32
2018-10-06T08:20:04.141Z,55.60
2018-10-06T08:22:32.618Z,54.18
2018-10-06T08:25:01.827Z,53.65
2018-10-06T08:27:31.054Z,52.84
2018-10-06T08:30:00.302Z,54.33
2018-10-06T08:32:29.805Z,54.60
2018-10-06T08:34:58.230Z,53.92
2018-10-06T08:37:26.728Z,54.09
2018-10-06T08:39:55.357Z,53.65
2018-10-06T08:42:24.700Z,52.57
2018-10-06T08:44:53.137Z,52.03
2018-10-06T08:47:21.337Z,53.49
2018-10-06T08:49:49.685Z,52.57
2018-10-06T08:52:17.912Z,52.87
2018-10-06T08:54:46.064Z,53.29
2018-10-06T08:57:14.485Z,52.32
2018-10-06T08:59:42.663Z,50.67
2018-10-06T09:02:10.752Z,50.02
2018-10-06T09:04:39.067Z,51.05
2018-10-06T09:07:07.620Z,50.51
2018-10-06T09:09:36.002Z,51.46
2018-10-06T09:12:04.158Z,51.41
2018-10-06T09:14:32.233Z,51.03
2018-10-06T09:17:00.519Z,50.42
2018-10-06T09:19:28.735Z,49.07
2018-10-06T09:21:56.893Z,48.35
2018-10-06T09:24:25.019Z,49.46
2018-10-06T09:26:53.359Z,48.67
2018-10-06T09:29:21.506Z,48.77
2018-10-06T09:31:49.711Z,49.90
2018-10-06T09:34:17.826Z,49.32
2018-10-06T09:36:46.022Z,49.00
2018-10-06T09:39:14.349Z,48.60
2018-10-06T09:41:42.530Z,48.79
2018-10-06T09:44:10.890Z,48.36
2018-10-06T09:46:39.352Z,49.81
2018-10-06T09:49:07.555Z,48.16
2018-10-06T09:51:35.636Z,48.35
2018-10-06T09:54:03.820Z,47.25
2018-10-06T09:56:31.981Z,48.40
2018-10-06T09:59:00.678Z,49.03
2018-10-06T10:01:34.251Z,48.29
2018-10-06T10:04:08.128Z,48.85
2018-10-06T10:06:36.326Z,48.76
2018-10-06T10:09:06.586Z,48.40
2018-10-06T10:11:34.658Z,47.75
2018-10-06T10:14:02.732Z,48.70
2018-10-06T10:16:30.852Z,48.50
2018-10-06T10:18:58.966Z,48.18
2018-10-06T10:21:27.339Z,47.66
2018-10-06T10:23:55.672Z,47.94
2018-10-06T10:26:23.881Z,48.00
2018-10-06T10:28:52.127Z,46.63
2018-10-06T10:31:20.744Z,47.57
2018-10-06T10:33:48.904Z,47.87
2018-10-06T10:36:17.336Z,47.73
2018-10-06T10:38:45.895Z,47.34
2018-10-06T10:41:14.509Z,46.80
2018-10-06T10:43:42.898Z,46.37
2018-10-06T10:46:11.524Z,46.38
2018-10-06T10:48:39.849Z,46.75
2018-10-06T10:51:08.182Z,47.41
2018-10-06T10:53:36.515Z,45.40
2018-10-06T10:56:04.851Z,46.96
2018-10-06T10:58:33.358Z,46.56
2018-10-06T11:01:02.358Z,46.78
2018-10-06T11:03:31.685Z,46.47
2018-10-06T11:06:00.716Z,46.19
2018-10-06T11:08:29.282Z,47.61
2018-10-06T11:10:57.802Z,45.66
2018-10-06T11:13:26.385Z,45.39
2018-10-06T11:15:54.885Z,46.34
2018-10-06T11:18:24.327Z,46.26
2018-10-06T11:20:53.110Z,46.21
2018-10-06T11:23:21.783Z,46.40
2018-10-06T11:25:50.400Z,46.03
2018-10-06T11:28:19.678Z,46.59
2018-10-06T11:30:48.062Z,45.97
2018-10-06T11:33:16.468Z,45.60
2018-10-06T11:35:44.800Z,46.42
2018-10-06T11:38:13.369Z,45.98
2018-10-06T11:40:42.746Z,45.43
2018-10-06T11:43:12.152Z,45.40
2018-10-06T11:45:41.777Z,45.24
2018-10-06T11:48:10.529Z,45.18
2018-10-06T11:50:39.581Z,45.04
2018-10-06T11:53:08.132Z,45.27
2018-10-06T11:55:36.584Z,44.30
2018-10-06T11:58:05.390Z,44.68
2018-10-06T12:00:34.412Z,44.23
2018-10-06T12:03:03.278Z,43.89
2018-10-06T12:05:32.309Z,43.95
2018-10-06T12:08:00.790Z,44.66
2018-10-06T12:10:29.426Z,43.69
2018-10-06T12:12:58.359Z,43.60
2018-10-06T12:15:26.869Z,42.43
2018-10-06T12:17:55.340Z,43.08
2018-10-06T12:20:23.863Z,43.55
2018-10-06T12:22:54.498Z,43.51
2018-10-06T12:25:23.388Z,43.27
2018-10-06T12:27:52.601Z,42.43
2018-10-06T12:30:22.036Z,42.63
2018-10-06T12:32:51.986Z,43.06
2018-10-06T12:35:21.088Z,43.17
2018-10-06T12:37:49.787Z,42.98
2018-10-06T12:40:18.222Z,43.71
2018-10-06T12:42:46.907Z,43.43
2018-10-06T12:45:15.429Z,43.15
2018-10-06T12:47:44.140Z,42.64
2018-10-06T12:50:12.835Z,43.04
2018-10-06T12:52:41.410Z,42.45
2018-10-06T12:55:10.081Z,42.91
2018-10-06T12:57:39.636Z,42.81
2018-10-06T13:00:08.357Z,42.21
2018-10-06T13:02:37.016Z,42.59
2018-10-06T13:05:05.627Z,42.51
2018-10-06T13:07:34.398Z,42.69
2018-10-06T13:10:03.184Z,41.91
2018-10-06T13:12:32.219Z,42.41
2018-10-06T13:15:01.137Z,42.69
2018-10-06T13:17:30.718Z,43.66
2018-10-06T13:19:59.769Z,41.92
2018-10-06T13:22:28.617Z,42.07
2018-10-06T13:24:57.631Z,41.44
2018-10-06T13:27:26.180Z,41.66
2018-10-06T13:29:54.912Z,41.49
2018-10-06T13:32:23.774Z,41.32
2018-10-06T13:34:52.692Z,42.10
2018-10-06T13:37:21.585Z,42.08
2018-10-06T13:39:50.383Z,41.98
2018-10-06T13:42:19.346Z,41.70
2018-10-06T13:44:48.227Z,41.78
2018-10-06T13:47:16.944Z,41.44
2018-10-06T13:49:45.759Z,41.26
2018-10-06T13:52:14.668Z,43.33
2018-10-06T13:54:46.000Z,42.07
2018-10-06T13:57:15.456Z,42.23
2018-10-06T13:59:44.147Z,43.56
2018-10-06T14:02:12.732Z,42.84
2018-10-06T14:04:41.141Z,44.23
2018-10-06T14:07:09.727Z,43.35
2018-10-06T14:09:38.256Z,43.71
2018-10-06T14:12:07.184Z,42.95
2018-10-06T14:14:35.571Z,43.37
2018-10-06T14:17:03.991Z,44.20
2018-10-06T14:19:32.578Z,42.49
2018-10-06T14:22:01.204Z,42.72
2018-10-06T14:24:29.849Z,45.56
2018-10-06T14:26:58.517Z,45.67
2018-10-06T14:29:26.966Z,45.58
2018-10-06T14:31:55.378Z,45.88
2018-10-06T14:34:23.730Z,44.85
2018-10-06T14:36:53.394Z,44.92
2018-10-06T14:39:21.887Z,46.12
2018-10-06T14:41:50.417Z,46.82
2018-10-06T14:44:19.205Z,46.48
2018-10-06T14:46:47.861Z,46.52
2018-10-06T14:49:16.407Z,47.14
2018-10-06T14:51:46.239Z,45.81
2018-10-06T14:54:14.611Z,47.89
2018-10-06T14:56:43.506Z,47.22
2018-10-06T14:59:13.076Z,47.33
2018-10-06T15:01:43.597Z,46.03
2018-10-06T15:04:12.046Z,45.49
2018-10-06T15:06:40.422Z,46.02
2018-10-06T15:09:10.134Z,47.73
2018-10-06T15:11:39.240Z,49.25
2018-10-06T15:14:07.884Z,47.54
2018-10-06T15:16:36.721Z,48.10
2018-10-06T15:19:05.611Z,48.31
2018-10-06T15:21:34.006Z,48.01
2018-10-06T15:24:02.735Z,47.73
2018-10-06T15:26:31.503Z,47.35
2018-10-06T15:29:00.829Z,47.79
2018-10-06T15:31:29.365Z,46.96
2018-10-06T15:33:57.788Z,45.16
2018-10-06T15:36:26.537Z,44.80
2018-10-06T15:38:55.053Z,45.52
2018-10-06T15:41:24.094Z,42.98
2018-10-06T15:43:53.320Z,44.10
2018-10-06T15:46:22.207Z,42.76
2018-10-06T15:48:51.195Z,42.67
2018-10-06T15:51:19.711Z,43.85
2018-10-06T15:53:48.191Z,42.13
2018-10-06T15:56:17.051Z,41.41
2018-10-06T15:58:45.431Z,42.54
2018-10-06T16:01:13.990Z,42.55
2018-10-06T16:03:42.386Z,43.08
2018-10-06T16:06:11.287Z,42.45
2018-10-06T16:08:40.005Z,42.03
2018-10-06T16:11:08.901Z,42.89
2018-10-06T16:13:37.494Z,42.24
2018-10-06T16:16:05.804Z,43.37
2018-10-06T16:18:34.685Z,44.23
2018-10-06T16:21:03.735Z,44.64
2018-10-06T16:23:32.091Z,45.08
2018-10-06T16:26:00.621Z,45.20
2018-10-06T16:28:29.349Z,45.05
2018-10-06T16:30:58.333Z,45.71
2018-10-06T16:33:26.947Z,46.26
2018-10-06T16:35:55.366Z,46.27
2018-10-06T16:38:23.724Z,46.19
2018-10-06T16:40:52.173Z,46.08
2018-10-06T16:43:20.740Z,46.43
2018-10-06T16:45:49.239Z,46.97
2018-10-06T16:48:17.661Z,47.65
2018-10-06T16:50:46.477Z,47.45
2018-10-06T16:53:15.389Z,46.64
2018-10-06T16:55:44.551Z,47.03
2018-10-06T16:58:13.845Z,47.59
2018-10-06T17:00:46.083Z,47.95
2018-10-06T17:03:15.690Z,48.35
2018-10-06T17:05:45.362Z,48.15
2018-10-06T17:08:14.168Z,47.32
2018-10-06T17:10:42.875Z,48.39
2018-10-06T17:13:11.661Z,48.45
2018-10-06T17:15:40.729Z,47.93
2018-10-06T17:18:09.904Z,48.84
2018-10-06T17:20:39.017Z,48.97
2018-10-06T17:23:07.945Z,48.56
2018-10-06T17:25:36.649Z,49.20
2018-10-06T17:28:07.333Z,49.20
2018-10-06T17:30:36.018Z,49.34
2018-10-06T17:33:04.492Z,49.77
2018-10-06T17:35:33.425Z,49.63
2018-10-06T17:38:02.026Z,50.24
2018-10-06T17:40:30.628Z,50.95
2018-10-06T17:42:59.521Z,51.75
2018-10-06T17:45:29.553Z,51.53
2018-10-06T17:47:59.067Z,51.84
2018-10-06T17:50:28.156Z,50.64
2018-10-06T17:52:57.016Z,51.70
2018-10-06T17:55:25.745Z,52.43
2018-10-06T17:57:54.288Z,53.92
2018-10-06T18:00:22.868Z,55.30
2018-10-06T18:02:51.272Z,56.30
2018-10-06T18:05:19.596Z,57.19
2018-10-06T18:07:48.176Z,57.41
2018-10-06T18:10:16.694Z,59.02
2018-10-06T18:12:45.230Z,60.27
2018-10-06T18:15:13.690Z,60.26
2018-10-06T18:17:42.757Z,61.24
2018-10-06T18:20:11.141Z,61.34
2018-10-06T18:22:40.208Z,62.60
2018-10-06T18:25:08.632Z,63.14
2018-10-06T18:27:37.203Z,63.46
2018-10-06T18:30:05.802Z,62.91
2018-10-06T18:32:34.433Z,63.51
2018-10-06T18:35:03.026Z,63.80
2018-10-06T18:37:31.791Z,63.97
2018-10-06T18:40:00.540Z,63.81
2018-10-06T18:42:29.266Z,64.35
2018-10-06T18:44:58.871Z,64.84
2018-10-06T18:47:27.777Z,65.90
2018-10-06T18:49:56.875Z,65.55
2018-10-06T18:52:25.548Z,66.43
2018-10-06T18:54:54.333Z,66.02
2018-10-06T18:57:22.912Z,64.60
2018-10-06T18:59:52.059Z,65.33
2018-10-06T19:02:21.632Z,65.54
2018-10-06T19:04:50.487Z,65.87
2018-10-06T19:07:19.121Z,66.17
2018-10-06T19:09:48.193Z,65.95
2018-10-06T19:12:17.637Z,66.28
2018-10-06T19:14:47.355Z,66.02
2018-10-06T19:17:15.969Z,66.03
2018-10-06T19:19:45.477Z,66.42
2018-10-06T19:22:14.845Z,66.58
2018-10-06T19:24:43.633Z,67.55
2018-10-06T19:27:12.319Z,67.04
2018-10-06T19:29:40.886Z,67.49
2018-10-06T19:32:09.227Z,67.83
2018-10-06T19:34:37.786Z,68.04
2018-10-06T19:37:06.263Z,67.67
2018-10-06T19:39:34.741Z,67.85
2018-10-06T19:42:03.791Z,68.23
2018-10-06T19:44:32.423Z,68.24
2018-10-06T19:47:01.038Z,67.80
2018-10-06T19:49:29.441Z,68.37
2018-10-06T19:51:57.895Z,67.72
2018-10-06T19:54:26.407Z,68.79
2018-10-06T19:56:54.798Z,68.91
2018-10-06T19:59:23.529Z,69.23
2018-10-06T20:01:52.032Z,69.27
2018-10-06T20:04:20.548Z,69.88
2018-10-06T20:06:48.864Z,69.72
2018-10-06T20:09:17.323Z,69.02
2018-10-06T20:11:45.928Z,69.11
2018-10-06T20:14:14.792Z,69.63
2018-10-06T20:19:11.048Z,69.83
2018-10-06T20:21:39.561Z,70.36
2018-10-06T20:24:08.213Z,69.45
2018-10-06T20:26:37.018Z,68.29
2018-10-06T20:29:06.230Z,67.87
2018-10-06T20:31:34.810Z,68.20
2018-10-06T20:34:03.296Z,67.49
2018-10-06T20:36:31.752Z,67.81
2018-10-06T20:39:01.203Z,67.76
2018-10-06T20:41:29.638Z,67.85
2018-10-06T20:43:57.975Z,66.81
2018-10-06T20:46:26.376Z,67.51
2018-10-06T20:48:54.847Z,66.86
2018-10-06T20:51:23.250Z,67.61
2018-10-06T20:53:51.659Z,68.94
2018-10-06T20:56:20.048Z,68.82
2018-10-06T20:58:48.514Z,69.93
2018-10-06T21:01:16.914Z,70.55
2018-10-06T21:03:46.140Z,71.03
2018-10-06T21:06:14.798Z,70.71
2018-10-06T21:08:43.299Z,72.23
2018-10-06T21:11:11.796Z,72.72
2018-10-06T21:13:40.112Z,73.40
2018-10-06T21:16:08.411Z,72.61
2018-10-06T21:18:36.825Z,73.92
2018-10-06T21:21:05.142Z,73.87
2018-10-06T21:23:33.395Z,74.71
2018-10-06T21:26:01.687Z,75.28
2018-10-06T21:28:30.137Z,75.16
2018-10-06T21:30:58.717Z,76.27
2018-10-06T21:33:27.070Z,76.80
2018-10-06T21:35:55.312Z,75.53
2018-10-06T21:38:23.628Z,76.36
2018-10-06T21:40:51.906Z,76.07
2018-10-06T21:43:20.104Z,76.95
2018-10-06T21:45:48.452Z,77.39
2018-10-06T21:48:16.786Z,78.22
2018-10-06T21:50:45.146Z,77.74
2018-10-06T21:53:13.410Z,79.36
2018-10-06T21:55:41.693Z,79.56
2018-10-06T21:58:09.988Z,79.04
2018-10-06T22:00:38.245Z,79.90
2018-10-06T22:03:06.564Z,80.27
2018-10-06T22:05:34.901Z,80.16
2018-10-06T22:08:03.073Z,78.99
2018-10-06T22:10:31.354Z,78.94
2018-10-06T22:12:59.381Z,79.62
2018-10-06T22:15:27.441Z,79.16
2018-10-06T22:17:55.570Z,80.28
2018-10-06T22:20:23.616Z,79.82
2018-10-06T22:22:51.636Z,78.92
2018-10-06T22:25:19.670Z,79.78
2018-10-06T22:27:47.755Z,80.11
2018-10-06T22:30:15.844Z,80.63
2018-10-06T22:32:44.731Z,80.20
2018-10-06T22:35:12.817Z,80.97
2018-10-06T22:37:40.801Z,81.64
2018-10-06T22:40:08.904Z,81.47
2018-10-06T22:42:36.978Z,81.36
2018-10-06T22:45:05.315Z,81.43
2018-10-06T22:47:33.412Z,82.24
2018-10-06T22:50:01.457Z,82.07
2018-10-06T22:52:29.486Z,81.94
2018-10-06T22:54:57.554Z,82.50
2018-10-06T22:57:25.621Z,82.88
2018-10-06T22:59:53.628Z,82.65
2018-10-06T23:02:21.672Z,82.44
2018-10-06T23:04:49.677Z,83.17
2018-10-06T23:07:17.783Z,83.60
2018-10-06T23:09:45.857Z,83.29
2018-10-06T23:12:13.897Z,83.93
2018-10-06T23:14:41.993Z,83.90
2018-10-06T23:17:10.037Z,83.80
2018-10-06T23:19:38.198Z,84.27
2018-10-06T23:22:06.467Z,82.93
2018-10-06T23:24:34.520Z,84.09
2018-10-06T23:27:02.648Z,84.01
2018-10-06T23:29:30.744Z,83.59
2018-10-06T23:31:58.764Z,83.01
2018-10-06T23:34:26.873Z,83.63
2018-10-06T23:36:54.929Z,83.44
2018-10-06T23:39:23.025Z,83.60
2018-10-06T23:41:51.118Z,82.74
2018-10-06T23:44:19.185Z,83.31
2018-10-06T23:46:47.254Z,83.52
2018-10-06T23:49:15.318Z,84.22
2018-10-06T23:51:43.404Z,84.00
2018-10-06T23:54:11.434Z,84.21
2018-10-06T23:56:39.555Z,84.38
2018-10-06T23:59:07.988Z,84.66
